Terminal Aerodrome Forecast
Issued by NWS

Home | Current Version | Previous Version | Text Only | Print | Product List | Glossary On
Versions: 1 2 3 4 5 6 7 8 9 10 11 12 13 14 15 16 17 18 19 20 21 22 23 24
000
FTUS42 KTBW 240800 AAB
TAFPIE
TAF AMD
KPIE 240843Z 2409/2506 VRB03KT 3SM BR FEW007
      TEMPO 2409/2411 1/2SM FG BKN007
     FM241300 07005KT P6SM FEW250
     FM241800 28009KT P6SM SCT035 SCT250
     FM250200 VRB03KT P6SM FEW250=

USA.gov is the U.S. government's official web portal to all federal, state and local government web resources and services.